This is the latest recevied weather packets stored in our database for station/object K1WJY. If no packets are shown the sender has not sent any weather packets the latest 10 day(s).
| Time | Temp. | Humidity | Pressure | Rain* | Wind** | Luminosity | Snow |
|---|---|---|---|---|---|---|---|
| 1787385942 | 16.67° C | 84% | 1022.2 hPa | 0 mm | - | 0 W/m² | - |
| 1787385638 | 16.67° C | 83% | 1022.2 hPa | 0 mm | - | 0 W/m² | - |
| 1787385336 | 16.67° C | 87% | 1021.9 hPa | 0 mm | - | 0 W/m² | - |
| 1787385032 | 16.67° C | 87% | 1021.8 hPa | 0 mm | - | 0 W/m² | - |
| 1787384728 | 16.67° C | 86% | 1021.9 hPa | 0 mm | - | 0 W/m² | - |
| 1787384425 | 17.22° C | 84% | 1022.1 hPa | 0 mm | - | 0 W/m² | - |
| 1787384120 | 17.78° C | 81% | 1021.8 hPa | 0 mm | - | 0 W/m² | - |
| 1787383815 | 18.89° C | 74% | 1022.1 hPa | 0 mm | - | 0 W/m² | - |
| 1787383510 | 19.44° C | 69% | 1022 hPa | 0 mm | - | 0 W/m² | - |
| 1787383207 | 19.44° C | 67% | 1022.1 hPa | 0 mm | - | 0 W/m² | - |
| 1787382903 | 19.44° C | 68% | 1022.1 hPa | 0 mm | - | 0 W/m² | - |
| 1787382602 | 19.44° C | 69% | 1022.1 hPa | 0 mm | - | 0 W/m² | - |
| 1787382302 | 19.44° C | 67% | 1022.3 hPa | 0 mm | - | 0 W/m² | - |
| 1787382002 | 19.44° C | 68% | 1021.9 hPa | 0 mm | - | 0 W/m² | - |
| 1787381696 | 19.44° C | 70% | 1021.9 hPa | 0 mm | - | 0 W/m² | - |
| 1787381395 | 18.89° C | 70% | 1022 hPa | 0 mm | - | 0 W/m² | - |
| 1787381091 | 17.78° C | 75% | 1022 hPa | 0 mm | - | 0 W/m² | - |
| 1787380790 | 16.67° C | 86% | 1021.8 hPa | 0 mm | - | 0 W/m² | - |
| 1787380486 | 16.11° C | 92% | 1022 hPa | 0 mm | - | 0 W/m² | - |
| 1787380182 | 16.11° C | 93% | 1021.9 hPa | 0 mm | - | 0 W/m² | - |
| 1787379877 | 16.11° C | 93% | 1021.9 hPa | 0 mm | - | 0 W/m² | - |
| 1787379577 | 16.11° C | 92% | 1021.9 hPa | 0 mm | - | 0 W/m² | - |
| 1787379272 | 16.11° C | 92% | 1022 hPa | 0 mm | - | 0 W/m² | - |
| 1787378971 | 16.11° C | 92% | 1022 hPa | 0 mm | - | 0 W/m² | - |
| 1787378671 | 16.11° C | 92% | 1021.9 hPa | 0 mm | - | 0 W/m² | - |
* Rain latest hour (hover to see other rain measurements)
** Current wind speed in m/s (hover to see current wind gust speed)